Bangkok Bridge — 3FTZ8 — position and weather

sailwx.info

Track history (hours):
 
Tides and Currents Weather Stations Pressure Air Temp Water Temp Dewpoint Dewpoint Depression Visibility Wind Speed Wind Dir Waves Ship Positions

Bangkok Bridge

Last reported at 2015-Mar-23 09:19 UTC. Time now 2015-Apr-01 22:39 UTC.
Position N 29°42' E 122°27'.
Warning: this ship's position is 9 days out of date.

Length 267 m; draft 11.2 m.

Type: Ship (hazmat cat A). MMSI: 353368000.

Date/timePositionNaut miles runAvg speedWind from/ knotsBaromVisibWave heightAir tempDewpointWater temp
2015-Mar-23 09:19N 29°42' E 122°27'1316.7
2015-Mar-23 08:34N 29°49' E 122°14'1413.5
2015-Mar-23 07:33N 29°56' E 122°01'9 9.0
2015-Mar-23 06:33N 29°57' E 121°50'0 0.0
2015-Mar-23 05:24N 29°57' E 121°50'0 0.0
2015-Mar-23 04:33N 29°57' E 121°50'0 0.1
2015-Mar-23 03:33N 29°57' E 121°50'0 0.0
2015-Mar-23 02:30N 29°57' E 121°50'0 0.0
2015-Mar-23 01:27N 29°57' E 121°50'0 0.0
2015-Mar-23 00:30N 29°57' E 121°50'0 0.0
2015-Mar-22 23:33N 29°57' E 121°50'0 0.0
2015-Mar-22 22:33N 29°57' E 121°50'0 0.0
2015-Mar-22 21:30N 29°57' E 121°50'0 0.1
2015-Mar-22 20:33N 29°57' E 121°50'0 0.1
2015-Mar-22 19:33N 29°57' E 121°50'0 0.0
2015-Mar-22 18:30N 29°57' E 121°50'0 0.1
2015-Mar-22 17:30N 29°57' E 121°50'0 0.1
2015-Mar-22 16:30N 29°57' E 121°50'1 1.6
2015-Mar-22 15:33N 29°57' E 121°52'1 1.4
2015-Mar-22 14:28N 29°57' E 121°53'0 0.0
2015-Mar-22 13:22N 29°57' E 121°53'0 0.1
2015-Mar-22 12:31N 29°57' E 121°53'0 0.2
2015-Mar-22 11:31N 29°57' E 121°54'0 0.0
2015-Mar-22 10:31N 29°57' E 121°54'0 0.0
2015-Mar-22 09:34N 29°57' E 121°54'0 0.0
2015-Mar-22 08:31N 29°57' E 121°54'0 0.1
2015-Mar-22 07:33N 29°57' E 121°54'0 0.0
2015-Mar-22 06:28N 29°57' E 121°54'0 0.1
2015-Mar-22 05:28N 29°57' E 121°54'0 0.2
2015-Mar-22 04:33N 29°57' E 121°53'0 0.1
2015-Mar-22 03:28N 29°57' E 121°53'0 0.0
2015-Mar-22 02:27N 29°57' E 121°53'0 0.0
2015-Mar-22 01:27N 29°57' E 121°53'0 0.3
2015-Mar-22 00:31N 29°57' E 121°54'0 0.0
2015-Mar-21 23:33N 29°57' E 121°54'0 0.0
2015-Mar-21 22:21N 29°57' E 121°54'0 0.1
2015-Mar-21 21:33N 29°57' E 121°54'0 0.1
2015-Mar-21 20:33N 29°57' E 121°54'8 7.7
2015-Mar-21 19:33N 29°55' E 122°02'1111.0
2015-Mar-21 18:33N 29°49' E 122°13'8 8.0
2015-Mar-21 17:32N 29°45' E 122°21'5 4.5
2015-Mar-21 16:30N 29°45' E 122°26'0 0.1
2015-Mar-21 15:24N 29°45' E 122°26'0 0.1
2015-Mar-21 14:31N 29°45' E 122°26'0 0.1
2015-Mar-21 12:03N 29°45' E 122°26'0 0.0
2015-Mar-21 06:15N 29°45' E 122°26'2 3.0
2015-Mar-21 05:33N 29°45' E 122°28'1614.7
2015-Mar-21 04:29N 29°48' E 122°46'4815.9
2015-Mar-21 01:28N 30°35' E 123°01'1921.4
2015-Mar-21 00:33N 30°53' E 122°54'2418.0
2015-Mar-20 23:12N 31°06' E 122°30'812.7
2015-Mar-20 22:32N 31°06' E 122°20'1413.9
2015-Mar-20 21:33N 31°13' E 122°07'1514.6
2015-Mar-20 20:33N 31°17' E 121°50'10 9.8
2015-Mar-20 19:33N 31°20' E 121°39'0 0.0
2015-Mar-20 18:33N 31°20' E 121°39'0 0.0
2015-Mar-20 17:33N 31°20' E 121°39'0 0.0
2015-Mar-20 16:33N 31°20' E 121°39'0 0.0
2015-Mar-20 15:33N 31°20' E 121°39'0 0.0
2015-Mar-20 14:33N 31°20' E 121°39'0 0.0
2015-Mar-20 13:33N 31°20' E 121°39'0 0.0
2015-Mar-20 12:33N 31°20' E 121°39'0 0.0
2015-Mar-20 11:33N 31°20' E 121°39'0 0.0
2015-Mar-20 10:33N 31°20' E 121°39'0 0.0
2015-Mar-20 09:33N 31°20' E 121°39'0 0.0
2015-Mar-20 08:33N 31°20' E 121°39'0 0.0
2015-Mar-20 07:33N 31°20' E 121°39'0 0.0
2015-Mar-20 06:33N 31°20' E 121°39'4 4.1
2015-Mar-20 05:33N 31°19' E 121°44'9 9.0
2015-Mar-20 04:33N 31°16' E 121°54'1110.8
2015-Mar-20 03:33N 31°14' E 122°06'1313.4
2015-Mar-20 02:33N 31°06' E 122°19'1110.9
2015-Mar-20 01:33N 31°07' E 122°32'13 1.5
2015-Mar-19 17:18N 31°14' E 122°44'0 0.1
2015-Mar-19 16:33N 31°14' E 122°44'0 0.1
2015-Mar-19 15:30N 31°15' E 122°44'0 0.1
2015-Mar-19 14:33N 31°15' E 122°44'0 0.0
2015-Mar-19 13:27N 31°15' E 122°44'0 0.1
2015-Mar-19 12:33N 31°15' E 122°43'0 0.1
2015-Mar-19 10:15N 31°14' E 122°44'0 0.1
2015-Mar-19 09:27N 31°14' E 122°44'  
2015-Mar-16 07:23N 35°50' E 120°49'1511.8
2015-Mar-16 06:09N 35°58' E 120°34'711.5
2015-Mar-16 05:33N 35°60' E 120°25'10 9.4
2015-Mar-16 04:32N 36°01' E 120°14'1 0.2
2015-Mar-15 23:32N 36°01' E 120°13'0 0.0
2015-Mar-15 11:26N 36°01' E 120°13'0 0.0
2015-Mar-15 08:32N 36°01' E 120°13'3 3.0
2015-Mar-15 07:29N 36°02' E 120°16'1011.0
2015-Mar-15 06:33N 36°00' E 120°29'1211.4
2015-Mar-15 05:27N 35°57' E 120°44'  
Track history (hours):
 
Tides and Currents Weather Stations Pressure Air Temp Water Temp Dewpoint Dewpoint Depression Visibility Wind Speed Wind Dir Waves Ship Positions

Bangkok Bridge

Last reported at 2015-Mar-23 09:19 UTC. Time now 2015-Apr-01 22:39 UTC.
Position N 29°42' E 122°27'.
Warning: this ship's position is 9 days out of date.

Length 267 m; draft 11.2 m.

Type: Ship (hazmat cat A). MMSI: 353368000.

Date/timePositionNaut miles runAvg speedWind from/ knotsBaromVisibWave heightAir tempDewpointWater temp
2015-Mar-23 09:19N 29°42' E 122°27'1316.7
2015-Mar-23 08:34N 29°49' E 122°14'1413.5
2015-Mar-23 07:33N 29°56' E 122°01'9 9.0
2015-Mar-23 06:33N 29°57' E 121°50'0 0.0
2015-Mar-23 05:24N 29°57' E 121°50'0 0.0
2015-Mar-23 04:33N 29°57' E 121°50'0 0.1
2015-Mar-23 03:33N 29°57' E 121°50'0 0.0
2015-Mar-23 02:30N 29°57' E 121°50'0 0.0
2015-Mar-23 01:27N 29°57' E 121°50'0 0.0
2015-Mar-23 00:30N 29°57' E 121°50'0 0.0
2015-Mar-22 23:33N 29°57' E 121°50'0 0.0
2015-Mar-22 22:33N 29°57' E 121°50'0 0.0
2015-Mar-22 21:30N 29°57' E 121°50'0 0.1
2015-Mar-22 20:33N 29°57' E 121°50'0 0.1
2015-Mar-22 19:33N 29°57' E 121°50'0 0.0
2015-Mar-22 18:30N 29°57' E 121°50'0 0.1
2015-Mar-22 17:30N 29°57' E 121°50'0 0.1
2015-Mar-22 16:30N 29°57' E 121°50'1 1.6
2015-Mar-22 15:33N 29°57' E 121°52'1 1.4
2015-Mar-22 14:28N 29°57' E 121°53'0 0.0
2015-Mar-22 13:22N 29°57' E 121°53'0 0.1
2015-Mar-22 12:31N 29°57' E 121°53'0 0.2
2015-Mar-22 11:31N 29°57' E 121°54'0 0.0
2015-Mar-22 10:31N 29°57' E 121°54'0 0.0
2015-Mar-22 09:34N 29°57' E 121°54'0 0.0
2015-Mar-22 08:31N 29°57' E 121°54'0 0.1
2015-Mar-22 07:33N 29°57' E 121°54'0 0.0
2015-Mar-22 06:28N 29°57' E 121°54'0 0.1
2015-Mar-22 05:28N 29°57' E 121°54'0 0.2
2015-Mar-22 04:33N 29°57' E 121°53'0 0.1
2015-Mar-22 03:28N 29°57' E 121°53'0 0.0
2015-Mar-22 02:27N 29°57' E 121°53'0 0.0
2015-Mar-22 01:27N 29°57' E 121°53'0 0.3
2015-Mar-22 00:31N 29°57' E 121°54'0 0.0
2015-Mar-21 23:33N 29°57' E 121°54'0 0.0
2015-Mar-21 22:21N 29°57' E 121°54'0 0.1
2015-Mar-21 21:33N 29°57' E 121°54'0 0.1
2015-Mar-21 20:33N 29°57' E 121°54'8 7.7
2015-Mar-21 19:33N 29°55' E 122°02'1111.0
2015-Mar-21 18:33N 29°49' E 122°13'8 8.0
2015-Mar-21 17:32N 29°45' E 122°21'5 4.5
2015-Mar-21 16:30N 29°45' E 122°26'0 0.1
2015-Mar-21 15:24N 29°45' E 122°26'0 0.1
2015-Mar-21 14:31N 29°45' E 122°26'0 0.1
2015-Mar-21 12:03N 29°45' E 122°26'0 0.0
2015-Mar-21 06:15N 29°45' E 122°26'2 3.0
2015-Mar-21 05:33N 29°45' E 122°28'1614.7
2015-Mar-21 04:29N 29°48' E 122°46'4815.9
2015-Mar-21 01:28N 30°35' E 123°01'1921.4
2015-Mar-21 00:33N 30°53' E 122°54'2418.0
2015-Mar-20 23:12N 31°06' E 122°30'812.7
2015-Mar-20 22:32N 31°06' E 122°20'1413.9
2015-Mar-20 21:33N 31°13' E 122°07'1514.6
2015-Mar-20 20:33N 31°17' E 121°50'10 9.8
2015-Mar-20 19:33N 31°20' E 121°39'0 0.0
2015-Mar-20 18:33N 31°20' E 121°39'0 0.0
2015-Mar-20 17:33N 31°20' E 121°39'0 0.0
2015-Mar-20 16:33N 31°20' E 121°39'0 0.0
2015-Mar-20 15:33N 31°20' E 121°39'0 0.0
2015-Mar-20 14:33N 31°20' E 121°39'0 0.0
2015-Mar-20 13:33N 31°20' E 121°39'0 0.0
2015-Mar-20 12:33N 31°20' E 121°39'0 0.0
2015-Mar-20 11:33N 31°20' E 121°39'0 0.0
2015-Mar-20 10:33N 31°20' E 121°39'0 0.0
2015-Mar-20 09:33N 31°20' E 121°39'0 0.0
2015-Mar-20 08:33N 31°20' E 121°39'0 0.0
2015-Mar-20 07:33N 31°20' E 121°39'0 0.0
2015-Mar-20 06:33N 31°20' E 121°39'4 4.1
2015-Mar-20 05:33N 31°19' E 121°44'9 9.0
2015-Mar-20 04:33N 31°16' E 121°54'1110.8
2015-Mar-20 03:33N 31°14' E 122°06'1313.4
2015-Mar-20 02:33N 31°06' E 122°19'1110.9
2015-Mar-20 01:33N 31°07' E 122°32'13 1.5
2015-Mar-19 17:18N 31°14' E 122°44'0 0.1
2015-Mar-19 16:33N 31°14' E 122°44'0 0.1
2015-Mar-19 15:30N 31°15' E 122°44'0 0.1
2015-Mar-19 14:33N 31°15' E 122°44'0 0.0
2015-Mar-19 13:27N 31°15' E 122°44'0 0.1
2015-Mar-19 12:33N 31°15' E 122°43'0 0.1
2015-Mar-19 10:15N 31°14' E 122°44'0 0.1
2015-Mar-19 09:27N 31°14' E 122°44'  
2015-Mar-16 07:23N 35°50' E 120°49'1511.8
2015-Mar-16 06:09N 35°58' E 120°34'711.5
2015-Mar-16 05:33N 35°60' E 120°25'10 9.4
2015-Mar-16 04:32N 36°01' E 120°14'1 0.2
2015-Mar-15 23:32N 36°01' E 120°13'0 0.0
2015-Mar-15 11:26N 36°01' E 120°13'0 0.0
2015-Mar-15 08:32N 36°01' E 120°13'3 3.0
2015-Mar-15 07:29N 36°02' E 120°16'1011.0
2015-Mar-15 06:33N 36°00' E 120°29'1211.4
2015-Mar-15 05:27N 35°57' E 120°44'  

Dump ship's entire track history